sim
Sign-in with your pilot id or email,
or register
Callsign
Passwort

Schedule Details

Flight Number: OEO8912
Departure: Munich Airport (EDDM) at 05:30
Arrival: Maastricht Aachen Airport (EHBK) at 06:50

Weather Information
Getting current METAR information for EDDM 280950Z 24004KT 220V290 9999 -RA FEW007 BKN045 08/06 Q1011 NOSIG
Getting current METAR information for EHBK 280955Z AUTO 20010KT 9999 FEW011 BKN027 OVC034 11/09 Q1009 REDZ TEMPO -RADZ BKN012

Schedule Frequency

Route Map